Station: Albion Park  

  Atmospheric Gas Attenuation - ITU Rec 676-11   ----------------- dB/100km -----------------
Date Time Temp RH % AH g/m3 Dew Point Wind Direction Speed kph Gust kph Barometer mB Rainfall Since 9am 24GHz 47GHz 76GHz 122GHz 134GHz 241GHz
08/05 12:30 20 40 6.91 6 24 43 1015.6 0 15.7 21.8 30.9 80.7 71.2 243.8
08/05 12:20 19.5 40 6.71 5.6 20 26 1015.8 0 15.3 21.6 30.4 79.4 69.3 237.3
08/05 12:10 19.3 41 6.8 5.7 30 33 1015.9 0 15.5 21.8 30.8 80.4 70.5 241.5
08/05 12:00 19.3 41 6.8 5.7 24 37 1016 0 15.5 21.8 30.8 80.4 70.6 241.5
08/05 11:50 19 41 6.68 5.5 19 26 1016.3 0 15.3 21.7 30.5 79.6 69.5 237.6
08/05 11:40 18.9 42 6.8 5.7 28 35 1016.4 0 15.6 21.9 30.9 80.8 70.9 242.8
08/05 11:30 19 41 6.68 5.5 28 44 1016.3 0 15.3 21.7 30.5 79.6 69.5 237.6
08/05 11:20 18.9 42 6.8 5.7 24 28 1016.4 0 15.6 21.9 30.9 80.8 70.9 242.8
08/05 11:10 19 43 7.01 6.1 26 30 1016.6 0 16.0 22.2 31.7 82.7 73.3 251.1
08/05 11:00 18.4 43 6.76 5.6 32 44 1016.4 0 15.5 22.0 31.0 81.0 70.9 242.7
08/05 10:50 18.3 43 6.72 5.5 33 39 1016.5 0 15.4 22.0 30.9 80.7 70.5 241.4
08/05 10:40 18.2 43 6.68 5.4 33 37 1016.6 0 15.3 21.9 30.8 80.4 70.2 240.0
08/05 10:30 18.1 45 6.95 6 26 39 1016.8 0 15.9 22.4 31.8 83.1 73.4 251.5
08/05 10:20 17.9 46 7.02 6.1 28 35 1016.9 0 16.1 22.5 32.1 84.0 74.4 255.0
08/05 10:10 17.4 44 6.52 5 32 41 1017 0 15.0 21.9 30.5 79.7 69.0 235.9
08/05 10:00 17.2 45 6.59 5.2 32 46 1017 0 15.2 22.1 30.9 80.6 70.0 239.4
08/05 09:50 16.9 46 6.62 5.2 37 41 1017 0 15.3 22.2 31.1 81.2 70.6 241.5
08/05 09:40 16.2 45 6.21 4.3 26 43 1017.1 0 14.4 21.8 29.9 78.0 66.4 226.6
08/05 09:30 16.3 48 6.66 5.3 28 39 1017.3 0 15.4 22.4 31.5 82.2 71.7 245.0
08/05 09:20 16.1 49 6.72 5.4 32 35 1017.5 0 15.5 22.5 31.8 83.0 72.6 248.2
08/05 09:10 15.8 49 6.6 5.1 24 33 1017.5 0 15.3 22.4 31.5 82.1 71.4 244.1
08/05 09:00 15.6 51 6.78 5.5 26 46 1017.5 0 15.6 22.7 32.2 84.1 73.7 252.3
08/05 08:50 15.2 51 6.62 5.1 24 28 1017.5 0 15.3 22.6 31.8 82.9 72.2 246.8
08/05 08:40 15 50 6.41 4.7 26 28 1017.5 0 14.9 22.3 31.1 81.1 69.8 238.5
08/05 08:30 14.4 52 6.43 4.7 24 35 1017.3 0 14.9 22.5 31.4 81.9 70.6 241.1
08/05 08:20 14.3 53 6.51 4.9 28 30 1017.3 0 15.1 22.7 31.7 82.8 71.7 244.8
08/05 08:10 13.9 53 6.35 4.5 24 30 1017.3 0 14.8 22.5 31.3 81.6 70.1 239.2
08/05 08:00 13.5 55 6.43 4.6 24 35 1017.2 0 15.0 22.7 31.7 82.8 71.4 243.8
08/05 07:50 13.2 54 6.2 4.1 20 26 1017.1 0 14.5 22.5 31.0 80.8 68.8 234.8
08/05 07:40 13 54 6.12 3.9 28 32 1016.8 0 14.3 22.4 30.7 80.2 68.0 231.9
08/05 07:30 12.6 56 6.2 4.1 32 43 1016.5 0 14.5 22.6 31.2 81.4 69.3 236.4
08/05 07:20 12.3 57 6.19 4 37 43 1016.5 0 14.5 22.6 31.3 81.6 69.5 236.9
08/05 07:10 12.2 57 6.15 3.9 35 43 1016.6 0 14.4 22.6 31.2 81.3 69.1 235.5
08/05 07:00 12.4 56 6.12 3.9 41 57 1016.3 0 14.4 22.5 31.0 80.8 68.5 233.5
08/05 06:50 12 56 5.97 3.5 33 37 1016.1 0 14.1 22.4 30.5 79.7 67.0 228.2
08/05 06:40 12 56 5.97 3.5 41 46 1015.9 0 14.1 22.4 30.5 79.6 67.0 228.1
08/05 06:30 11.9 56 5.93 3.4 39 54 1015.9 0 14.0 22.3 30.4 79.3 66.6 226.7
08/05 06:20 11.8 57 6 3.6 39 46 1016.1 0 14.1 22.5 30.7 80.2 67.5 230.0
08/05 06:10 11.8 56 5.89 3.3 43 44 1016.2 0 13.9 22.3 30.3 79.1 66.2 225.3
08/05 06:00 11.6 57 5.93 3.4 39 48 1016.2 0 14.0 22.4 30.5 79.7 66.9 227.6
08/05 05:50 11.5 57 5.89 3.3 39 43 1016.3 0 13.9 22.4 30.4 79.4 66.5 226.2
08/05 05:40 11.3 57 5.82 3.1 35 39 1016.3 0 13.8 22.3 30.3 78.9 65.8 223.7
08/05 05:30 11.4 57 5.85 3.2 37 48 1016.2 0 13.8 22.3 30.3 79.1 66.0 224.7
08/05 05:20 11.5 56 5.79 3 39 44 1016.4 0 13.7 22.2 30.1 78.4 65.2 221.9
08/05 05:10 11.4 56 5.75 2.9 41 44 1016.3 0 13.6 22.2 30.0 78.1 64.8 220.4
08/05 05:00 11.2 56 5.68 2.8 44 57 1016.2 0 13.5 22.1 29.8 77.6 64.1 218.0
08/05 04:50 11.3 56 5.71 2.9 44 57 1016.4 0 13.5 22.2 29.9 77.8 64.4 219.0
08/05 04:40 11.1 57 5.74 2.9 39 44 1016.4 0 13.6 22.3 30.0 78.3 65.0 220.8
08/05 04:30 11.2 56 5.68 2.8 39 48 1016.4 0 13.5 22.1 29.8 77.6 64.1 218.0
08/05 04:20 11.1 56 5.64 2.7 39 43 1016.7 0 13.4 22.1 29.7 77.3 63.7 216.6
08/05 04:10 11 56 5.61 2.6 39 43 1016.6 0 13.3 22.1 29.6 77.1 63.5 215.6
08/05 04:00 10.9 56 5.57 2.5 41 48 1016.5 0 13.2 22.1 29.5 76.8 63.0 214.1
08/05 03:50 11.1 56 5.64 2.7 46 52 1016.5 0 13.4 22.1 29.7 77.3 63.7 216.6
08/05 03:40 11.3 55 5.61 2.6 46 50 1016.6 0 13.3 22.0 29.5 76.8 63.2 214.8
08/05 03:30 11.2 56 5.68 2.8 41 57 1016.5 0 13.5 22.2 29.8 77.6 64.1 218.0
08/05 03:20 10.8 57 5.64 2.6 39 48 1016.7 0 13.4 22.2 29.8 77.6 64.0 217.4
08/05 03:10 10.7 57 5.6 2.5 37 44 1016.7 0 13.3 22.2 29.7 77.3 63.6 216.0
08/05 03:00 10.9 56 5.57 2.5 39 50 1016.7 0 13.2 22.1 29.5 76.8 63.0 214.1
08/05 02:50 10.5 57 5.53 2.4 32 33 1016.9 0 13.2 22.1 29.5 76.8 62.9 213.5
08/05 02:40 10.7 57 5.6 2.5 35 39 1017 0 13.3 22.2 29.7 77.3 63.6 216.0
08/05 02:30 10.4 58 5.59 2.5 35 48 1017 0 13.3 22.2 29.8 77.5 63.7 216.4
08/05 02:20 10.3 58 5.56 2.4 39 44 1017.1 0 13.2 22.2 29.7 77.3 63.4 215.4
08/05 02:10 10.3 58 5.56 2.4 35 39 1017.3 0 13.2 22.2 29.7 77.4 63.4 215.4
08/05 02:00 10.4 57 5.49 2.3 37 44 1017.2 0 13.1 22.1 29.4 76.6 62.5 212.1
08/05 01:50 10.2 57 5.43 2.1 33 35 1017.6 0 13.0 22.1 29.3 76.2 61.9 210.1
08/05 01:40 10.3 56 5.36 1.9 32 37 1017.8 0 12.8 21.9 29.0 75.4 61.0 206.9
08/05 01:30 10.1 56 5.3 1.7 35 48 1017.7 0 12.7 21.9 28.8 75.0 60.4 204.8
08/05 01:20 10.1 56 5.3 1.7 33 37 1017.9 0 12.7 21.9 28.8 75.0 60.4 204.8
08/05 01:10 10.3 55 5.27 1.7 37 43 1018 0 12.6 21.8 28.6 74.5 59.9 203.1
08/05 01:00 10 55 5.17 1.4 33 43 1018.2 0 12.4 21.7 28.4 73.8 58.9 199.6
08/05 00:50 10.1 55 5.2 1.5 37 43 1018.3 0 12.5 21.8 28.5 74.1 59.2 200.6
08/05 00:40 9.8 55 5.1 1.2 35 41 1018.3 0 12.3 21.7 28.2 73.3 58.2 197.1
08/05 00:20 10.2 52 4.95 0.8 37 43 1018.5 0 12.0 21.4 27.5 71.5 56.1 189.8
08/05 00:10 10.2 52 4.95 0.8 41 46 1018.4 0 12.0 21.4 27.5 71.5 56.1 189.7
08/05 00:00 10.5 50 4.85 0.5 37 48 1018.4 0 11.7 21.2 27.1 70.3 54.7 184.8
07/05 23:50 10.8 49 4.84 0.5 48 54 1018.2 0 11.7 21.1 26.9 69.9 54.4 183.7
07/05 23:40 10.5 49 4.75 0.3 37 43 1018.1 0 11.5 21.0 26.7 69.3 53.5 180.6
07/05 23:30 10.7 49 4.81 0.4 37 44 1018.1 0 11.6 21.0 26.8 69.7 54.1 182.7
07/05 23:20 10.6 49 4.78 0.3 37 41 1018.2 0 11.6 21.0 26.8 69.5 53.8 181.6
07/05 23:10 10.6 50 4.88 0.6 37 46 1018.2 0 11.8 21.2 27.1 70.5 55.0 185.8
07/05 23:00 10.5 50 4.85 0.5 33 43 1018.1 0 11.7 21.1 27.0 70.3 54.7 184.8
07/05 22:50 10.5 51 4.95 0.8 32 35 1018.2 0 11.9 21.3 27.4 71.2 55.9 189.0
07/05 22:40 10.6 50 4.88 0.6 30 37 1018.3 0 11.8 21.2 27.1 70.5 55.0 185.9
07/05 22:30 10.6 50 4.88 0.6 28 41 1018.3 0 11.8 21.2 27.1 70.5 55.0 185.9
07/05 22:20 10.7 50 4.91 0.7 30 37 1018.5 0 11.9 21.2 27.2 70.7 55.3 186.9
07/05 22:10 10.7 49 4.81 0.4 28 46 1018.4 0 11.6 21.1 26.9 69.7 54.1 182.7
07/05 22:00 10.7 49 4.81 0.4 32 39 1018.4 0 11.6 21.1 26.9 69.7 54.1 182.7
07/05 21:50 10.9 48 4.78 0.3 33 37 1018.6 0 11.6 21.0 26.7 69.3 53.6 181.0
07/05 21:40 10.9 48 4.78 0.3 28 33 1018.5 0 11.6 21.0 26.7 69.3 53.6 181.0
07/05 21:30 10.8 49 4.84 0.5 32 44 1018.3 0 11.7 21.1 26.9 69.9 54.4 183.7
07/05 21:20 10.9 49 4.87 0.6 28 32 1018.3 0 11.8 21.1 27.0 70.1 54.7 184.7
07/05 21:10 10.8 49 4.84 0.5 26 30 1018.3 0 11.7 21.1 26.9 69.9 54.4 183.7
07/05 21:00 10.8 49 4.84 0.5 30 43 1017.9 0 11.7 21.1 26.9 69.9 54.4 183.7
07/05 20:50 11.6 46 4.78 0.4 39 48 1017.8 0 11.5 20.8 26.4 68.6 53.1 179.4
07/05 20:40 11.2 48 4.87 0.6 35 43 1017.9 0 11.8 21.0 26.9 69.8 54.5 184.0
07/05 20:30 11.3 47 4.79 0.4 28 41 1017.8 0 11.6 20.9 26.6 69.0 53.5 180.4
07/05 20:20 11.3 47 4.79 0.4 22 24 1018 0 11.6 20.9 26.6 69.0 53.5 180.5
07/05 20:10 11.5 47 4.86 0.6 24 30 1018.2 0 11.7 20.9 26.8 69.5 54.2 183.0
07/05 20:00 11.6 46 4.78 0.4 24 37 1018.2 0 11.5 20.8 26.4 68.7 53.2 179.4
07/05 19:50 11.1 48 4.84 0.5 26 35 1018.2 0 11.7 21.0 26.8 69.7 54.2 183.0

Last Refresh: 08-May-2026 12:08:29

Bureau of Meteorology